Flower, West Virginia
Current Conditions -  °F | °C
As of 10:55 PM on Tuesday 27 Jan 2015 (Local Time) from KW22 Reporting Station
Light Snow Light Snow  
Wind Chill: -14°   Ceiling: 1300
Heat Index: -8°   Visibility: 9mi
Dew Point: -10°   Wind: 8mph
Humidity: 86%   Direction: 310°NW
Pressure: 30.09"   Gusts: NA
Location:  38.837°N, 80.8415°W
Report Text: KW22 280355Z AUTO 31007KT 280V340 9SM -SN BKN013 OVC017 M08/M10 A3009 RMK AO2
Loading
Personal Weather Stations






























Interactive Weather Map New forecast layout! Learn more

10-Day Weather Forecast

Advertisements
Track Severe Weather on mobile